ADDS METAR Data INFO
IDs: Format: Raw Decoded Include TAF

Data at: 2050 UTC 24 Jun 2018

KRWV 242035Z AUTO 15015G21KT 10SM SCT049 34/22 A2988 RMK AO2 T03400223
KRWV 242015Z AUTO 17015G19KT 10SM SCT049 35/23 A2988 RMK AO2 T03460226
KRWV 241955Z AUTO 17015KT 10SM BKN047 BKN060 34/22 A2988 RMK AO2 T03380224
KRWV 241935Z AUTO 15016G23KT 10SM BKN047 BKN060 34/23 A2989 RMK AO2 T03390230
KRWV 241915Z AUTO 15015G21KT 10SM SCT045 BKN055 34/23 A2989 RMK AO2 T03410235
KRWV 241855Z AUTO 17012G15KT 10SM BKN047 BKN055 34/23 A2989 RMK AO2 T03390234
KRWV 241835Z AUTO 18011G17KT 10SM BKN047 34/23 A2990 RMK AO2 T03440234
KRWV 241815Z AUTO 16012G18KT 10SM BKN047 BKN050 33/23 A2990 RMK AO2 T03340226
KRWV 241755Z AUTO 18013G19KT 10SM SCT045 34/23 A2990 RMK AO2 T03360228 10341 20252
KRWV 241735Z AUTO 17011G17KT 10SM SCT043 33/23 A2990 RMK AO2 T03340231
KRWV 241715Z AUTO 17014G20KT 10SM BKN041 BKN048 33/23 A2990 RMK AO2 T03310230
KRWV 241655Z AUTO 20010G16KT 10SM BKN037 BKN043 32/23 A2990 RMK AO2 T03210230
KRWV 241635Z AUTO 20009KT 10SM BKN034 BKN042 32/23 A2991 RMK AO2 T03180228
KRWV 241615Z AUTO 20011G20KT 10SM SCT039 SCT044 32/23 A2990 RMK AO2 T03200232
KRWV 241555Z AUTO 19011G19KT 10SM BKN033 BKN041 31/23 A2990 RMK AO2 T03140230
KRWV 241535Z AUTO 19012G19KT 10SM SCT030 BKN037 30/23 A2990 RMK AO2 T02990231
KRWV 241515Z AUTO 19011G19KT 10SM BKN028 BKN033 30/23 A2989 RMK AO2 T02980231
KRWV 241455Z AUTO 18019G24KT 10SM BKN026 BKN033 30/24 A2989 RMK AO2 T03030236
KRWV 241435Z AUTO 18015G24KT 10SM OVC024 29/23 A2988 RMK AO2 T02930234
KRWV 241415Z AUTO 17018G26KT 10SM OVC021 30/24 A2988 RMK AO2 LTG DSNT SE T02950236
KRWV 241355Z AUTO 19013G21KT 10SM OVC019 29/24 A2987 RMK AO2 T02860240
KRWV 241335Z AUTO 18013G19KT 10SM OVC014 27/24 A2987 RMK AO2 T02740240
KRWV 241315Z AUTO 19014G20KT 10SM OVC010 27/24 A2985 RMK AO2 T02660241
KRWV 241255Z AUTO 18012G20KT 10SM OVC010 26/24 A2985 RMK AO2 T02610240
KRWV 241235Z AUTO 18015G22KT 10SM BKN010 BKN016 26/24 A2984 RMK AO2 T02560239
KRWV 241215Z AUTO 18011KT 10SM BKN010 BKN014 25/24 A2984 RMK AO2 T02530239
KRWV 241155Z AUTO 18013G17KT 10SM SCT010 BKN014 25/24 A2984 RMK AO2 T02520240 10269 20250
KRWV 241135Z AUTO 18012KT 10SM BKN010 25/24 A2985 RMK AO2 T02510240
KRWV 241115Z AUTO 18010KT 10SM SCT012 25/24 A2986 RMK AO2 T02520240
KRWV 241055Z AUTO 18009KT 10SM CLR 25/24 A2986 RMK AO2 T02530240
KRWV 241035Z AUTO 17010G16KT 10SM CLR 25/24 A2986 RMK AO2 T02530240
KRWV 241015Z AUTO 18012KT 10SM SCT018 25/24 A2985 RMK AO2 T02540240
KRWV 240955Z AUTO 17012KT 10SM SCT018 25/24 A2985 RMK AO2 T02550240
KRWV 240935Z AUTO 17009KT 10SM SCT016 SCT021 26/24 A2986 RMK AO2 T02580240
KRWV 240915Z AUTO 17009KT 10SM SCT020 SCT026 SCT040 26/24 A2987 RMK AO2 T02590239
KRWV 240855Z AUTO 17008KT 10SM BKN021 BKN026 OVC035 26/24 A2988 RMK AO2 T02620240
KRWV 240835Z AUTO 18006KT 10SM SCT019 BKN023 OVC037 26/24 A2989 RMK AO2 T02620239
KRWV 240815Z AUTO 18007KT 10SM BKN017 BKN024 OVC041 26/24 A2991 RMK AO2 T02650239
KRWV 240755Z AUTO 19007KT 10SM BKN015 OVC020 27/24 A2991 RMK AO2 T02660239
KRWV 240735Z AUTO 20006KT 10SM OVC018 27/24 A2992 RMK AO2
KRWV 240715Z AUTO 19008KT 10SM BKN018 BKN023 OVC032 27/24 A2991 RMK AO2 T02680238
KRWV 240655Z AUTO 19010G18KT 10SM BKN018 BKN023 OVC028 27/24 A2991 RMK AO2 T02690238
KRWV 240635Z AUTO 18010KT 10SM BKN018 BKN023 OVC027 27/24 A2990 RMK AO2 LTG DSNT W T02680239
KRWV 240615Z AUTO 18011G17KT 10SM BKN018 OVC026 27/24 A2988 RMK AO2 LTG DSNT W T02680238
KRWV 240555Z AUTO 17015G20KT 10SM BKN020 OVC026 27/24 A2987 RMK AO2 T02680238 10320 20268
KRWV 240535Z AUTO 18014KT 10SM BKN020 OVC026 27/24 A2987 RMK AO2 LTG DSNT NW T02690238
KRWV 240515Z AUTO 17013G21KT 10SM BKN022 OVC026 27/24 A2987 RMK AO2 T02690237
KRWV 240455Z AUTO 18015G18KT 10SM BKN018 OVC024 27/24 A2986 RMK AO2 T02700239
KRWV 240435Z AUTO 17015G22KT 10SM OVC018 27/24 A2986 RMK AO2 T02700239
KRWV 240415Z AUTO 17013G20KT 10SM OVC018 27/24 A2985 RMK AO2 T02710240
KRWV 240355Z AUTO 17012G18KT 10SM SCT020 27/24 A2983 RMK AO2 T02710238
KRWV 240335Z AUTO 17013G19KT 10SM SCT020 27/24 A2981 RMK AO2 T02740236
KRWV 240315Z AUTO 17013G20KT CLR 28/24 A2980 RMK AO2 T02770236
KRWV 240255Z AUTO 17011KT 10SM CLR 28/23 A2980 RMK AO2 T02800234
KRWV 240235Z AUTO 16013G19KT 10SM CLR 28/23 A2979 RMK AO2 T02820232
KRWV 240215Z AUTO 16011G16KT 10SM CLR 29/23 A2979 RMK AO2 T02860230
KRWV 240155Z AUTO 16011KT 10SM CLR 29/23 A2978 RMK AO2 T02870228
KRWV 240135Z AUTO 16010KT 10SM CLR 30/23 A2978 RMK AO2 T02960226
KRWV 240115Z AUTO 16012KT 10SM CLR 30/23 A2978 RMK AO2 T03000225
KRWV 240055Z AUTO 15014G22KT 10SM CLR 31/22 A2978 RMK AO2 T03060222
KRWV 240035Z AUTO 16015G20KT 10SM SCT041 31/23 A2978 RMK AO2 T03110227
KRWV 240015Z AUTO 17015G23KT 10SM CLR 32/23 A2977 RMK AO2 T03180227
KRWV 232355Z AUTO 16016G21KT 10SM CLR 32/23 A2977 RMK AO2 T03220228 10353 20315 403530236
KRWV 232335Z AUTO 16018G24KT 10SM CLR 33/23 A2977 RMK AO2 T03250230
KRWV 232315Z AUTO 16019KT 10SM SCT046 33/23 A2977 RMK AO2 T03290230
KRWV 232255Z AUTO 16013G17KT 10SM SCT050 34/23 A2978 RMK AO2 T03360231
KRWV 232235Z AUTO 16017G23KT 10SM BKN048 33/23 A2979 RMK AO2 T03290229
KRWV 232215Z AUTO 15014KT 10SM BKN050 34/23 A2979 RMK AO2 T03370234
KRWV 232155Z AUTO 16013G20KT 10SM BKN050 34/23 A2979 RMK AO2 T03430234
KRWV 232135Z AUTO 15012KT 10SM SCT050 34/23 A2980 RMK AO2 T03380228
KRWV 232115Z AUTO 15014G22KT 10SM BKN050 33/23 A2980 RMK AO2 T03350225
KRWV 232055Z AUTO 17015G20KT 10SM SCT050 35/23 A2981 RMK AO2 T03490227
KRWV 232035Z AUTO 16014G18KT 10SM SCT050 34/22 A2981 RMK AO2 T03440224
KRWV 232015Z AUTO 18016KT 10SM SCT050 34/22 A2981 RMK AO2 T03410219
KRWV 231955Z AUTO 16012KT 10SM SCT048 34/22 A2982 RMK AO2 T03440225
KRWV 231935Z AUTO 15015KT 10SM SCT048 SCT050 33/22 A2983 RMK AO2 T03310221
KRWV 231915Z AUTO 17012G16KT 10SM SCT048 SCT060 33/22 A2984 RMK AO2 T03330222
KRWV 231855Z AUTO 16013G17KT 10SM BKN046 BKN050 33/22 A2985 RMK AO2 T03270222
KRWV 231835Z AUTO 17009G16KT 10SM BKN044 BKN055 33/22 A2986 RMK AO2 T03260222
KRWV 231815Z AUTO 16009KT 140V200 10SM BKN042 BKN048 33/22 A2987 RMK AO2 T03310222
KRWV 231755Z AUTO 14010G15KT 10SM BKN039 BKN046 33/23 A2987 RMK AO2 T03260226 10331 20241
KRWV 231735Z AUTO 15011G17KT 10SM BKN039 BKN046 32/23 A2988 RMK AO2 T03230228
KRWV 231715Z AUTO 18009KT 10SM BKN035 BKN042 31/22 A2989 RMK AO2 T03110219
KRWV 231655Z AUTO 19009G22KT 10SM BKN035 BKN041 31/23 A2989 RMK AO2 T03150228
KRWV 231635Z AUTO 17012G17KT 10SM BKN033 32/23 A2988 RMK AO2 T03170226
KRWV 231615Z AUTO 20008KT 10SM BKN031 BKN038 31/23 A2988 RMK AO2 T03110226
KRWV 231555Z AUTO 18013G19KT 10SM SCT031 31/23 A2989 RMK AO2 T03080226
KRWV 231535Z AUTO 18011G18KT 10SM BKN029 30/22 A2988 RMK AO2 T02960225
KRWV 231515Z AUTO 18015G21KT 10SM BKN023 BKN030 30/23 A2988 RMK AO2 T03000228
KRWV 231455Z AUTO 21013G16KT 10SM OVC021 29/23 A2988 RMK AO2 T02900230
KRWV 231435Z AUTO 20012G15KT 10SM OVC019 28/23 A2988 RMK AO2 T02840228
KRWV 231415Z AUTO 20010G16KT 10SM OVC017 28/23 A2989 RMK AO2 T02840231
KRWV 231355Z AUTO 18014G18KT 10SM BKN017 OVC022 27/23 A2988 RMK AO2 T02680230
KRWV 231335Z AUTO 17008KT 10SM BKN017 OVC023 26/23 A2988 RMK AO2 T02610232
KRWV 231315Z AUTO 17010KT 10SM BKN015 OVC021 26/23 A2989 RMK AO2 T02570231
KRWV 231255Z AUTO 16008KT 10SM OVC013 25/23 A2988 RMK AO2 T02510232
KRWV 231235Z AUTO 17007KT 10SM OVC013 25/23 A2988 RMK AO2 T02480232
KRWV 231215Z AUTO 17007KT 10SM BKN011 OVC015 24/23 A2986 RMK AO2 T02440235
KRWV 231155Z AUTO 17006KT 10SM OVC009 24/23 A2986 RMK AO2 T02400233 10262 20236
KRWV 231135Z AUTO 16007KT 10SM BKN007 BKN011 24/23 A2984 RMK AO2 T02380232
KRWV 231115Z AUTO 15007KT 10SM SCT007 24/23 A2984 RMK AO2 T02370231
KRWV 231055Z AUTO 15006KT 10SM CLR 24/23 A2984 RMK AO2 T02370230
KRWV 231035Z AUTO 16006KT 10SM CLR 24/23 A2984 RMK AO2 T02380230
KRWV 231015Z AUTO 16006KT 10SM CLR 24/23 A2983 RMK AO2 T02400229
KRWV 230955Z AUTO 17007KT 10SM CLR 24/23 A2984 RMK AO2 T02430231
KRWV 230935Z AUTO 18006KT 10SM CLR 24/23 A2984 RMK AO2 T02440232
KRWV 230915Z AUTO 17006KT 10SM SCT012 24/23 A2984 RMK AO2 T02450233
KRWV 230855Z AUTO 17005KT 10SM BKN012 25/23 A2984 RMK AO2 T02470234